createdAt,value
2022-11-08T00:00:41.381Z,17.27
2022-11-08T00:03:09.427Z,14.23
2022-11-08T00:05:56.446Z,17.17
2022-11-08T00:08:41.587Z,16.30
2022-11-08T00:11:27.238Z,16.37
2022-11-08T00:14:04.172Z,15.97
2022-11-08T00:16:32.099Z,15.37
2022-11-08T00:19:00.048Z,20.45
2022-11-08T00:21:29.684Z,15.88
2022-11-08T00:24:00.797Z,16.75
2022-11-08T00:26:29.173Z,17.87
2022-11-08T00:28:57.820Z,17.73
2022-11-08T00:31:29.167Z,18.40
2022-11-08T00:33:58.659Z,16.20
2022-11-08T00:36:26.841Z,21.37
2022-11-08T00:38:56.674Z,19.20
2022-11-08T00:41:25.238Z,18.67
2022-11-08T00:43:53.683Z,17.00
2022-11-08T00:46:21.762Z,21.07
2022-11-08T00:48:49.961Z,19.97
2022-11-08T00:51:22.816Z,22.02
2022-11-08T00:53:50.967Z,19.40
2022-11-08T00:56:28.295Z,23.47
2022-11-08T00:58:56.343Z,23.77
2022-11-08T01:01:24.386Z,19.92
2022-11-08T01:03:56.827Z,19.90
2022-11-08T01:06:26.432Z,18.57
2022-11-08T01:08:56.984Z,21.83
2022-11-08T01:11:29.791Z,17.52
2022-11-08T01:13:59.575Z,20.90
2022-11-08T01:16:30.505Z,19.60
2022-11-08T01:19:03.272Z,20.07
2022-11-08T01:21:32.754Z,20.17
2022-11-08T01:24:00.768Z,21.17
2022-11-08T01:26:30.838Z,20.63
2022-11-08T01:28:59.688Z,19.30
2022-11-08T01:31:30.961Z,20.67
2022-11-08T01:34:01.699Z,19.40
2022-11-08T01:36:30.337Z,19.45
2022-11-08T01:38:58.753Z,20.47
2022-11-08T01:41:30.282Z,17.63
2022-11-08T01:43:58.983Z,22.15
2022-11-08T01:46:45.568Z,22.70
2022-11-08T01:49:34.111Z,21.57
2022-11-08T01:52:17.278Z,20.77
2022-11-08T01:54:52.420Z,18.95
2022-11-08T01:57:25.967Z,20.23
2022-11-08T01:59:57.575Z,18.00
2022-11-08T02:02:25.805Z,20.37
2022-11-08T02:04:54.012Z,21.63
2022-11-08T02:07:23.187Z,19.07
2022-11-08T02:09:51.125Z,19.43
2022-11-08T02:12:23.670Z,17.37
2022-11-08T02:14:51.996Z,20.43
2022-11-08T02:17:23.505Z,21.53
2022-11-08T02:19:54.771Z,20.23
2022-11-08T02:22:35.402Z,19.03
2022-11-08T02:25:05.571Z,21.47
2022-11-08T02:27:33.801Z,20.90
2022-11-08T02:30:05.068Z,19.80
2022-11-08T02:32:39.652Z,20.50
2022-11-08T02:35:13.964Z,23.83
2022-11-08T02:37:42.377Z,18.83
2022-11-08T02:40:14.973Z,23.13
2022-11-08T02:42:42.891Z,19.23
2022-11-08T02:45:10.982Z,18.83
2022-11-08T02:47:38.870Z,19.60
2022-11-08T02:50:08.559Z,19.03
2022-11-08T02:52:36.749Z,18.07
2022-11-08T02:55:05.365Z,21.83
2022-11-08T02:57:37.534Z,19.50
2022-11-08T03:00:06.425Z,20.50
2022-11-08T03:02:34.790Z,19.33
2022-11-08T03:05:02.887Z,18.83
2022-11-08T03:07:31.227Z,21.08
2022-11-08T03:09:59.284Z,16.93
2022-11-08T03:12:27.814Z,18.20
2022-11-08T03:14:59.406Z,16.50
2022-11-08T03:17:27.620Z,19.55
2022-11-08T03:19:56.273Z,20.40
2022-11-08T03:22:24.336Z,16.90
2022-11-08T03:24:52.842Z,18.92
2022-11-08T03:27:21.820Z,20.85
2022-11-08T03:29:50.322Z,19.60
2022-11-08T03:32:19.648Z,16.73
2022-11-08T03:34:47.552Z,20.40
2022-11-08T03:37:15.459Z,20.02
2022-11-08T03:39:44.328Z,17.30
2022-11-08T03:42:12.173Z,23.33
2022-11-08T03:44:40.037Z,19.42
2022-11-08T03:47:07.983Z,17.90
2022-11-08T03:49:37.736Z,21.17
2022-11-08T03:52:05.909Z,20.00
2022-11-08T03:54:33.841Z,19.77
2022-11-08T03:57:01.753Z,20.25
2022-11-08T03:59:29.714Z,21.35
2022-11-08T04:01:57.740Z,21.23
2022-11-08T04:04:25.700Z,19.73
2022-11-08T04:06:55.250Z,20.17
2022-11-08T04:09:23.386Z,18.42
2022-11-08T04:12:09.017Z,21.57
2022-11-08T04:14:54.445Z,17.38
2022-11-08T04:17:42.388Z,19.75
2022-11-08T04:20:28.758Z,17.50
2022-11-08T04:22:58.603Z,19.88
2022-11-08T04:25:29.981Z,19.92
2022-11-08T04:28:00.466Z,19.58
2022-11-08T04:30:28.389Z,22.23
2022-11-08T04:32:56.242Z,22.00
2022-11-08T04:35:24.200Z,21.77
2022-11-08T04:37:52.072Z,18.17
2022-11-08T04:40:21.374Z,18.20
2022-11-08T04:42:49.249Z,18.25
2022-11-08T04:45:17.497Z,19.73
2022-11-08T04:47:48.457Z,24.13
2022-11-08T04:50:17.358Z,21.27
2022-11-08T04:52:52.847Z,20.08
2022-11-08T04:55:23.263Z,19.52
2022-11-08T04:57:51.603Z,19.50
2022-11-08T05:00:19.974Z,18.95
2022-11-08T05:02:47.945Z,20.83
2022-11-08T05:05:15.896Z,20.53
2022-11-08T05:07:44.549Z,20.08
2022-11-08T05:10:12.499Z,25.23
2022-11-08T05:12:41.744Z,18.60
2022-11-08T05:15:10.575Z,19.10
2022-11-08T05:17:39.605Z,19.85
2022-11-08T05:20:25.985Z,19.33
2022-11-08T05:23:11.602Z,19.95
2022-11-08T05:25:41.192Z,16.70
2022-11-08T05:28:10.501Z,19.95
2022-11-08T05:30:38.409Z,22.23
2022-11-08T05:33:06.334Z,21.85
2022-11-08T05:35:34.528Z,19.27
2022-11-08T05:38:02.529Z,19.08
2022-11-08T05:40:33.330Z,18.90
2022-11-08T05:43:01.688Z,17.92
2022-11-08T05:45:31.263Z,21.33
2022-11-08T05:48:03.699Z,19.33
2022-11-08T05:50:32.735Z,18.80
2022-11-08T05:53:00.887Z,19.38
2022-11-08T05:55:28.998Z,19.45
2022-11-08T05:57:56.989Z,17.08
2022-11-08T06:00:24.979Z,19.80
2022-11-08T06:02:54.326Z,22.13
2022-11-08T06:05:22.371Z,19.75
2022-11-08T06:07:50.431Z,22.23
2022-11-08T06:10:18.499Z,20.17
2022-11-08T06:12:46.378Z,18.98
2022-11-08T06:15:14.425Z,20.48
2022-11-08T06:17:42.879Z,17.58
2022-11-08T06:20:14.072Z,21.83
2022-11-08T06:22:43.460Z,17.52
2022-11-08T06:25:11.644Z,22.55
2022-11-08T06:27:39.543Z,18.85
2022-11-08T06:30:09.047Z,17.20
2022-11-08T06:32:37.155Z,17.23
2022-11-08T06:35:05.431Z,16.95
2022-11-08T06:37:34.729Z,17.90
2022-11-08T06:40:02.623Z,16.48
2022-11-08T06:42:30.818Z,18.77
2022-11-08T06:44:58.751Z,19.77
2022-11-08T06:47:26.734Z,22.85
2022-11-08T06:49:54.667Z,17.17
2022-11-08T06:52:22.557Z,18.52
2022-11-08T06:54:52.769Z,17.95
2022-11-08T06:57:20.774Z,17.30
2022-11-08T06:59:48.663Z,17.60
2022-11-08T07:02:16.735Z,16.98
2022-11-08T07:04:44.828Z,18.95
2022-11-08T07:07:12.776Z,16.75
2022-11-08T07:09:40.681Z,17.93
2022-11-08T07:12:10.296Z,15.32
2022-11-08T07:14:38.156Z,17.45
2022-11-08T07:17:06.079Z,15.70
2022-11-08T07:19:34.016Z,15.70
2022-11-08T07:22:02.002Z,15.13
2022-11-08T07:24:30.076Z,17.75
2022-11-08T07:26:57.948Z,14.82
2022-11-08T07:29:27.229Z,13.40
2022-11-08T07:31:55.135Z,17.15
2022-11-08T07:34:24.020Z,14.73
2022-11-08T07:36:51.942Z,15.80
2022-11-08T07:39:19.912Z,14.77
2022-11-08T07:41:49.731Z,16.60
2022-11-08T07:44:17.691Z,16.73
2022-11-08T07:46:47.011Z,16.17
2022-11-08T07:49:14.935Z,15.00
2022-11-08T07:51:42.943Z,17.75
2022-11-08T07:54:10.928Z,17.33
2022-11-08T07:56:38.869Z,16.77
2022-11-08T07:59:06.778Z,17.20
2022-11-08T08:01:34.830Z,15.20
2022-11-08T08:04:04.768Z,16.38
2022-11-08T08:06:32.761Z,16.40
2022-11-08T08:09:00.707Z,17.85
2022-11-08T08:11:33.465Z,15.45
2022-11-08T08:14:01.887Z,15.95
2022-11-08T08:16:29.929Z,16.15
2022-11-08T08:18:57.829Z,15.70
2022-11-08T08:21:27.117Z,17.15
2022-11-08T08:23:55.055Z,15.57
2022-11-08T08:26:23.012Z,14.43
2022-11-08T08:28:50.919Z,16.17
2022-11-08T08:31:19.071Z,16.98
2022-11-08T08:33:47.059Z,18.30
2022-11-08T08:36:15.226Z,17.55
2022-11-08T08:38:44.928Z,18.13
2022-11-08T08:41:12.937Z,15.15
2022-11-08T08:43:40.955Z,15.88
2022-11-08T08:46:08.961Z,16.80
2022-11-08T08:48:38.565Z,17.05
2022-11-08T08:51:06.666Z,17.75
2022-11-08T08:53:34.667Z,13.68
2022-11-08T08:56:05.530Z,13.82
2022-11-08T08:58:33.585Z,14.75
2022-11-08T09:03:50.951Z,16.60
2022-11-08T09:06:18.917Z,12.90
2022-11-08T09:08:46.808Z,14.73
2022-11-08T09:11:16.258Z,13.90
2022-11-08T09:13:44.433Z,12.15
2022-11-08T09:16:13.763Z,16.08
2022-11-08T09:18:41.811Z,12.48
2022-11-08T09:21:09.975Z,13.65
2022-11-08T09:23:37.929Z,13.50
2022-11-08T09:26:07.084Z,16.42
2022-11-08T09:28:37.719Z,13.90
2022-11-08T09:31:09.156Z,13.70
2022-11-08T09:33:38.604Z,14.48
2022-11-08T09:36:08.136Z,14.40
2022-11-08T09:38:36.093Z,12.88
2022-11-08T09:41:22.160Z,12.55
2022-11-08T09:44:16.431Z,13.52
2022-11-08T09:46:52.075Z,13.48
2022-11-08T09:49:23.762Z,13.27
2022-11-08T09:51:52.317Z,13.80
2022-11-08T09:54:25.331Z,12.05
2022-11-08T09:56:55.885Z,13.45
2022-11-08T09:59:35.176Z,16.38
2022-11-08T10:02:03.500Z,13.13
2022-11-08T10:04:33.886Z,14.98
2022-11-08T10:07:23.973Z,13.60
2022-11-08T10:10:32.528Z,16.10
2022-11-08T10:13:09.403Z,15.55
2022-11-08T10:15:47.718Z,14.85
2022-11-08T10:18:40.511Z,15.63
2022-11-08T10:21:19.871Z,13.32
2022-11-08T10:23:55.831Z,15.10
2022-11-08T10:26:34.830Z,13.82
2022-11-08T10:29:08.518Z,15.02
2022-11-08T10:31:40.487Z,15.65
2022-11-08T10:34:15.085Z,13.52
2022-11-08T10:36:46.867Z,12.55
2022-11-08T10:39:19.882Z,15.00
2022-11-08T10:41:51.345Z,14.23
2022-11-08T10:44:22.338Z,13.73
2022-11-08T10:46:58.926Z,14.15
2022-11-08T10:49:29.219Z,12.45
2022-11-08T10:51:58.682Z,10.60
2022-11-08T10:54:44.242Z,16.55
2022-11-08T10:57:14.205Z,11.30
2022-11-08T10:59:42.740Z,14.23
2022-11-08T11:02:25.617Z,14.95
2022-11-08T11:04:56.099Z,12.30
2022-11-08T11:07:32.211Z,13.07
2022-11-08T11:10:17.584Z,12.73
2022-11-08T11:12:51.140Z,13.63
2022-11-08T11:15:19.382Z,14.65
2022-11-08T11:17:48.865Z,9.70
2022-11-08T11:20:23.221Z,13.05
2022-11-08T11:22:53.517Z,12.93
2022-11-08T11:25:23.731Z,11.00
2022-11-08T11:27:56.357Z,11.70
2022-11-08T11:30:33.084Z,10.65
2022-11-08T11:33:08.231Z,9.85
2022-11-08T11:35:43.248Z,11.45
2022-11-08T11:38:20.148Z,7.70
2022-11-08T11:40:50.746Z,11.00
2022-11-08T11:43:25.469Z,9.02
2022-11-08T11:45:59.612Z,7.82
2022-11-08T11:48:31.240Z,7.97
2022-11-08T11:51:00.159Z,7.28
2022-11-08T11:53:32.931Z,8.10
2022-11-08T11:56:22.345Z,8.82
2022-11-08T11:59:05.579Z,7.72
2022-11-08T12:01:47.902Z,7.88
2022-11-08T12:04:45.498Z,8.10
2022-11-08T12:07:20.510Z,9.10
2022-11-08T12:09:58.641Z,8.73
2022-11-08T12:12:40.878Z,7.45
2022-11-08T12:15:20.113Z,6.95
2022-11-08T12:18:25.772Z,10.45
2022-11-08T12:21:11.939Z,8.60
2022-11-08T12:24:04.793Z,11.77
2022-11-08T12:26:39.249Z,7.40
2022-11-08T12:29:24.785Z,8.07
2022-11-08T12:32:08.661Z,8.27
2022-11-08T12:34:49.574Z,6.28
2022-11-08T12:37:33.696Z,8.02
2022-11-08T12:40:07.094Z,8.70
2022-11-08T12:43:04.244Z,7.00
2022-11-08T12:46:05.778Z,7.28
2022-11-08T12:48:53.844Z,7.60
2022-11-08T12:51:27.558Z,8.05
2022-11-08T12:54:18.055Z,14.32
2022-11-08T12:56:49.669Z,8.60
2022-11-08T12:59:22.225Z,8.00
2022-11-08T13:01:51.698Z,6.97
2022-11-08T13:04:46.666Z,8.52
2022-11-08T13:07:32.290Z,8.48
2022-11-08T13:10:12.489Z,6.70
2022-11-08T13:13:04.350Z,6.75
2022-11-08T13:15:32.517Z,8.65
2022-11-08T13:18:23.629Z,8.18
2022-11-08T13:20:51.896Z,9.55
2022-11-08T13:23:28.502Z,7.30
2022-11-08T13:26:13.893Z,8.50
2022-11-08T13:28:43.739Z,8.25
2022-11-08T13:31:20.896Z,6.55
2022-11-08T13:34:02.710Z,6.97
2022-11-08T13:36:42.190Z,7.60
2022-11-08T13:39:28.580Z,7.63
2022-11-08T13:42:06.466Z,6.65
2022-11-08T13:45:00.767Z,8.25
2022-11-08T13:47:53.420Z,8.65
2022-11-08T13:50:53.106Z,8.38
2022-11-08T13:53:45.327Z,8.32
2022-11-08T13:56:39.441Z,7.90
2022-11-08T13:59:48.816Z,9.15
2022-11-08T14:02:45.297Z,7.47
2022-11-08T14:05:32.752Z,11.35
2022-11-08T14:08:32.025Z,7.90
2022-11-08T14:11:33.736Z,9.80
2022-11-08T14:14:13.160Z,8.52
2022-11-08T14:17:09.700Z,8.07
2022-11-08T14:19:41.349Z,8.73
2022-11-08T14:22:16.387Z,8.43
2022-11-08T14:24:44.932Z,10.02
2022-11-08T14:27:16.295Z,7.38
2022-11-08T14:29:44.330Z,8.75
2022-11-08T14:32:20.523Z,9.23
2022-11-08T14:34:49.871Z,12.50
2022-11-08T14:37:24.771Z,6.90
2022-11-08T14:39:54.482Z,8.73
2022-11-08T14:42:24.422Z,10.45
2022-11-08T14:44:55.694Z,8.02
2022-11-08T14:47:26.408Z,9.10
2022-11-08T14:49:56.051Z,9.65
2022-11-08T14:52:28.335Z,8.68
2022-11-08T14:55:04.469Z,26.92
2022-11-08T14:57:37.611Z,9.63
2022-11-08T15:00:14.757Z,8.90
2022-11-08T15:02:49.608Z,11.70
2022-11-08T15:05:31.645Z,11.50
2022-11-08T15:08:00.614Z,9.43
2022-11-08T15:10:29.431Z,8.68
2022-11-08T15:12:58.471Z,13.38
2022-11-08T15:15:30.518Z,8.52
2022-11-08T15:18:17.313Z,6.70
2022-11-08T15:20:57.758Z,9.35
2022-11-08T15:23:33.914Z,12.50
2022-11-08T15:26:02.392Z,9.98
2022-11-08T15:28:35.259Z,10.43
2022-11-08T15:31:05.191Z,10.02
2022-11-08T15:33:37.969Z,10.85
2022-11-08T15:36:15.038Z,11.10
2022-11-08T15:38:44.379Z,10.20
2022-11-08T15:41:32.824Z,8.50
2022-11-08T15:44:31.074Z,9.48
2022-11-08T15:46:59.088Z,8.77
2022-11-08T15:49:28.741Z,9.88
2022-11-08T15:51:59.657Z,8.43
2022-11-08T15:54:28.124Z,8.80
2022-11-08T15:56:57.555Z,8.93
2022-11-08T15:59:29.654Z,10.57
2022-11-08T16:02:00.127Z,10.27
2022-11-08T16:04:28.861Z,8.85
2022-11-08T16:07:03.480Z,9.30
2022-11-08T16:09:31.392Z,8.18
2022-11-08T16:12:00.793Z,12.13
2022-11-08T16:14:28.664Z,9.82
2022-11-08T16:16:56.595Z,10.15
2022-11-08T16:19:26.043Z,9.23
2022-11-08T16:21:54.166Z,10.63
2022-11-08T16:24:23.396Z,16.10
2022-11-08T16:26:51.342Z,10.23
2022-11-08T16:29:21.703Z,13.63
2022-11-08T16:31:50.271Z,11.93
2022-11-08T16:34:18.437Z,12.00
2022-11-08T16:36:48.135Z,10.18
2022-11-08T16:39:18.127Z,13.63
2022-11-08T16:41:47.431Z,11.07
2022-11-08T16:44:15.308Z,11.23
2022-11-08T16:46:43.375Z,11.32
2022-11-08T16:49:21.063Z,13.82
2022-11-08T16:51:49.876Z,12.20
2022-11-08T16:54:20.703Z,13.57
2022-11-08T16:56:51.566Z,10.30
2022-11-08T16:59:19.780Z,13.10
2022-11-08T17:01:49.996Z,17.77
2022-11-08T17:04:18.021Z,12.15
2022-11-08T17:06:46.045Z,12.75
2022-11-08T17:09:14.024Z,12.40
2022-11-08T17:11:41.921Z,12.20
2022-11-08T17:14:13.501Z,11.32
2022-11-08T17:16:41.755Z,12.07
2022-11-08T17:19:09.704Z,11.95
2022-11-08T17:21:44.745Z,12.13
2022-11-08T17:24:19.866Z,11.95
2022-11-08T17:26:49.598Z,13.20
2022-11-08T17:29:19.070Z,14.63
2022-11-08T17:31:47.018Z,14.88
2022-11-08T17:34:15.171Z,11.10
2022-11-08T17:36:43.181Z,13.40
2022-11-08T17:39:14.132Z,12.18
2022-11-08T17:41:42.346Z,12.15
2022-11-08T17:44:10.364Z,13.38
2022-11-08T17:46:39.972Z,12.80
2022-11-08T17:49:07.856Z,13.15
2022-11-08T17:51:36.644Z,10.73
2022-11-08T17:54:04.951Z,9.88
2022-11-08T17:56:33.106Z,10.18
2022-11-08T17:59:01.088Z,10.10
2022-11-08T18:01:29.071Z,10.90
2022-11-08T18:04:00.702Z,10.10
2022-11-08T18:06:28.618Z,11.82
2022-11-08T18:08:57.014Z,8.60
2022-11-08T18:11:25.271Z,11.15
2022-11-08T18:13:53.874Z,9.20
2022-11-08T18:16:23.355Z,10.87
2022-11-08T18:18:52.326Z,11.48
2022-11-08T18:21:21.587Z,9.40
2022-11-08T18:23:50.279Z,12.18
2022-11-08T18:26:19.368Z,11.07
2022-11-08T18:29:01.380Z,10.75
2022-11-08T18:31:38.023Z,13.10
2022-11-08T18:34:06.131Z,10.82
2022-11-08T18:36:35.754Z,15.10
2022-11-08T18:39:03.852Z,11.27
2022-11-08T18:41:32.996Z,12.73
2022-11-08T18:44:02.928Z,15.82
2022-11-08T18:46:34.894Z,12.68
2022-11-08T18:49:05.203Z,12.45
2022-11-08T18:51:33.344Z,13.88
2022-11-08T18:54:02.640Z,11.05
2022-11-08T18:56:30.600Z,13.20
2022-11-08T18:58:58.526Z,11.63
2022-11-08T19:01:26.739Z,14.63
2022-11-08T19:03:54.744Z,14.90
2022-11-08T19:06:22.711Z,16.75
2022-11-08T19:08:50.615Z,16.23
2022-11-08T19:11:22.938Z,13.68
2022-11-08T19:13:51.196Z,13.35
2022-11-08T19:16:21.269Z,14.00
2022-11-08T19:18:50.151Z,10.05
2022-11-08T19:21:23.660Z,17.88
2022-11-08T19:23:52.329Z,18.13
2022-11-08T19:26:23.361Z,24.40
2022-11-08T19:28:54.070Z,15.37
2022-11-08T19:31:24.457Z,13.05
2022-11-08T19:33:54.239Z,11.57
2022-11-08T19:36:23.960Z,11.77
2022-11-08T19:38:52.289Z,13.23
2022-11-08T19:41:25.361Z,15.23
2022-11-08T19:43:58.118Z,13.20
2022-11-08T19:46:31.120Z,14.40
2022-11-08T19:49:01.463Z,15.32
2022-11-08T19:51:30.813Z,13.30
2022-11-08T19:54:01.302Z,12.07
2022-11-08T19:56:57.700Z,14.63
2022-11-08T19:59:19.334Z,28.75
2022-11-08T20:01:47.374Z,13.80
2022-11-08T20:04:17.127Z,13.50
2022-11-08T20:06:46.112Z,17.40
2022-11-08T20:09:14.129Z,16.20
2022-11-08T20:11:43.375Z,15.98
2022-11-08T20:14:17.037Z,16.10
2022-11-08T20:16:50.656Z,17.05
2022-11-08T20:19:21.043Z,49.30
2022-11-08T20:21:51.693Z,53.40
2022-11-08T20:24:19.891Z,42.05
2022-11-08T20:26:49.329Z,28.52
2022-11-08T20:29:20.348Z,20.65
2022-11-08T20:31:51.068Z,15.57
2022-11-08T20:34:25.864Z,22.97
2022-11-08T20:36:57.199Z,82.90
2022-11-08T20:39:25.064Z,39.33
2022-11-08T20:41:54.303Z,36.33
2022-11-08T20:44:31.209Z,24.67
2022-11-08T20:47:00.542Z,22.03
2022-11-08T20:49:33.607Z,15.90
2022-11-08T20:52:16.927Z,14.20
2022-11-08T20:54:49.714Z,13.83
2022-11-08T20:57:24.689Z,14.30
2022-11-08T20:59:55.467Z,14.17
2022-11-08T21:02:23.348Z,13.07
2022-11-08T21:04:56.422Z,14.33
2022-11-08T21:10:40.956Z,13.63
2022-11-08T21:13:04.381Z,20.60
2022-11-08T21:15:32.324Z,13.13
2022-11-08T21:18:03.055Z,11.23
2022-11-08T21:20:32.061Z,19.73
2022-11-08T21:23:04.937Z,13.17
2022-11-08T21:25:35.002Z,15.20
2022-11-08T21:28:04.265Z,13.53
2022-11-08T21:30:32.170Z,15.37
2022-11-08T21:33:00.107Z,17.53
2022-11-08T21:35:27.980Z,16.87
2022-11-08T21:37:55.962Z,14.20
2022-11-08T21:40:23.954Z,17.00
2022-11-08T21:42:52.020Z,17.83
2022-11-08T21:45:21.334Z,16.37
2022-11-08T21:47:51.002Z,16.07
2022-11-08T21:50:19.377Z,21.97
2022-11-08T21:52:48.108Z,19.63
2022-11-08T21:55:16.997Z,16.47
2022-11-08T21:57:45.144Z,16.30
2022-11-08T22:00:17.606Z,16.97
2022-11-08T22:02:50.326Z,15.77
2022-11-08T22:05:19.001Z,16.87
2022-11-08T22:07:50.338Z,18.87
2022-11-08T22:10:23.723Z,15.07
2022-11-08T22:12:59.859Z,16.27
2022-11-08T22:15:33.727Z,14.80
2022-11-08T22:18:15.353Z,17.77
2022-11-08T22:21:02.700Z,17.43
2022-11-08T22:23:40.019Z,16.27
2022-11-08T22:26:13.285Z,17.57
2022-11-08T22:28:43.059Z,16.37
2022-11-08T22:31:13.263Z,19.50
2022-11-08T22:33:47.916Z,19.77
2022-11-08T22:36:22.610Z,20.33
2022-11-08T22:39:10.431Z,17.63
2022-11-08T22:41:50.260Z,18.27
2022-11-08T22:44:21.771Z,19.93
2022-11-08T22:46:51.204Z,20.50
2022-11-08T22:49:20.845Z,18.67
2022-11-08T22:51:48.967Z,19.70
2022-11-08T22:54:21.044Z,18.83
2022-11-08T22:56:51.350Z,18.07
2022-11-08T22:59:25.190Z,19.53
2022-11-08T23:01:53.764Z,15.53
2022-11-08T23:04:35.195Z,18.50
2022-11-08T23:07:06.948Z,16.07
2022-11-08T23:09:38.328Z,15.90
2022-11-08T23:12:27.070Z,17.97
2022-11-08T23:15:19.287Z,17.27
2022-11-08T23:17:49.880Z,15.37
2022-11-08T23:20:36.883Z,16.73
2022-11-08T23:23:21.981Z,17.10
2022-11-08T23:25:49.888Z,16.63
2022-11-08T23:28:35.381Z,17.17
2022-11-08T23:31:32.155Z,18.07
2022-11-08T23:34:00.135Z,15.50
2022-11-08T23:36:29.525Z,16.20
2022-11-08T23:38:58.526Z,20.63
2022-11-08T23:41:44.269Z,16.70
2022-11-08T23:44:27.857Z,16.27
2022-11-08T23:46:57.318Z,15.73
2022-11-08T23:49:25.663Z,13.97
2022-11-08T23:51:55.434Z,19.47
2022-11-08T23:54:23.672Z,16.47
2022-11-08T23:56:52.659Z,19.43
2022-11-08T23:59:20.658Z,17.53
